createdAt,value
2019-06-07T00:00:48.712Z,26.2
2019-06-07T00:10:48.891Z,26.1
2019-06-07T00:20:48.111Z,26.1
2019-06-07T00:30:51.867Z,26.1
2019-06-07T00:40:46.568Z,26.1
2019-06-07T00:50:45.796Z,26.1
2019-06-07T01:00:45.023Z,26.1
2019-06-07T01:10:53.343Z,26.1
2019-06-07T01:20:43.521Z,26.1
2019-06-07T01:30:42.703Z,26.1
2019-06-07T01:40:41.920Z,26
2019-06-07T01:50:41.145Z,26
2019-06-07T02:00:40.378Z,26
2019-06-07T02:10:39.602Z,26
2019-06-07T02:20:38.822Z,25.9
2019-06-07T02:30:46.896Z,26
2019-06-07T02:40:37.698Z,26
2019-06-07T02:50:38.661Z,25.9
2019-06-07T03:00:59.842Z,26.1
2019-06-07T03:10:37.615Z,26
2019-06-07T03:20:34.969Z,26.1
2019-06-07T03:30:47.890Z,26.1
2019-06-07T03:40:36.714Z,26.1
2019-06-07T03:50:34.225Z,26.1
2019-06-07T04:00:32.852Z,26.1
2019-06-07T04:10:48.145Z,26.1
2019-06-07T04:20:32.503Z,26.1
2019-06-07T04:30:29.874Z,26.1
2019-06-07T04:40:30.602Z,26.1
2019-06-07T04:50:27.206Z,26.1
2019-06-07T05:00:49.531Z,26.1
2019-06-07T05:10:25.658Z,26.1
2019-06-07T05:20:24.883Z,26.1
2019-06-07T05:30:58.350Z,26
2019-06-07T05:40:23.335Z,26
2019-06-07T05:50:38.885Z,26
2019-06-07T06:00:21.786Z,26
2019-06-07T06:10:21.059Z,25.9
2019-06-07T06:20:20.235Z,26
2019-06-07T06:30:19.464Z,25.9
2019-06-07T06:40:18.687Z,26
2019-06-07T06:50:17.918Z,26
2019-06-07T07:00:17.145Z,25.9
2019-06-07T07:10:16.372Z,26
2019-06-07T07:20:15.617Z,25.9
2019-06-07T07:30:35.865Z,25.9
2019-06-07T07:50:13.270Z,25.9
2019-06-07T08:00:49.235Z,25.9
2019-06-07T08:10:11.732Z,25.9
2019-06-07T08:20:10.966Z,26
2019-06-07T08:30:46.263Z,26
2019-06-07T08:40:09.400Z,26
2019-06-07T08:50:08.626Z,26.1
2019-06-07T09:00:42.147Z,26.1
2019-06-07T09:10:12.764Z,26.1
2019-06-07T09:20:15.382Z,26.1
2019-06-07T09:30:12.498Z,26.1
2019-06-07T09:40:19.570Z,26.1
2019-06-07T09:50:08.458Z,26.1
2019-06-07T10:00:33.469Z,26.2
2019-06-07T10:10:20.755Z,26.3
2019-06-07T10:20:02.478Z,26.3
2019-06-07T10:30:02.298Z,26.3
2019-06-07T10:40:00.590Z,26.3
2019-06-07T10:49:59.401Z,26.3
2019-06-07T10:59:58.581Z,26.3
2019-06-07T11:10:06.831Z,26.3
2019-06-07T11:19:57.037Z,26.3
2019-06-07T11:29:56.269Z,26.4
2019-06-07T11:39:55.491Z,26.4
2019-06-07T11:49:54.769Z,26.4
2019-06-07T11:59:53.946Z,26.4
2019-06-07T12:09:56.590Z,26.4
2019-06-07T12:19:52.391Z,26.4
2019-06-07T12:29:51.622Z,26.4
2019-06-07T12:39:50.853Z,26.5
2019-06-07T12:49:50.071Z,26.4
2019-06-07T12:59:49.309Z,26.5
2019-06-07T13:09:48.534Z,26.6
2019-06-07T13:19:47.755Z,26.6
2019-06-07T13:29:46.975Z,26.6
2019-06-07T13:39:46.253Z,26.6
2019-06-07T13:49:45.427Z,26.6
2019-06-07T13:59:44.659Z,26.7
2019-06-07T14:09:43.885Z,26.7
2019-06-07T14:19:43.106Z,26.7
2019-06-07T14:29:42.333Z,26.8
2019-06-07T14:39:41.565Z,26.8
2019-06-07T14:49:40.788Z,26.8
2019-06-07T14:59:40.018Z,26.8
2019-06-07T15:09:39.352Z,26.9
2019-06-07T15:19:39.090Z,26.9
2019-06-07T15:29:38.296Z,27
2019-06-07T15:39:36.920Z,26.9
2019-06-07T15:49:36.225Z,26.9
2019-06-07T15:59:35.803Z,27
2019-06-07T16:09:34.606Z,27.1
2019-06-07T16:19:38.030Z,27
2019-06-07T16:29:34.248Z,27.1
2019-06-07T16:39:32.302Z,27.1
2019-06-07T16:49:31.526Z,27.1
2019-06-07T16:59:30.745Z,27.1
2019-06-07T17:09:29.982Z,27.1
2019-06-07T17:19:29.205Z,27.1
2019-06-07T17:29:28.436Z,27.1
2019-06-07T17:39:27.668Z,27.1
2019-06-07T17:49:26.899Z,27.1
2019-06-07T17:59:26.128Z,27.1
2019-06-07T18:09:25.354Z,27
2019-06-07T18:19:24.595Z,27
2019-06-07T18:29:23.814Z,27
2019-06-07T18:39:23.091Z,27
2019-06-07T18:49:22.262Z,26.9
2019-06-07T18:59:21.493Z,26.9
2019-06-07T19:09:20.731Z,26.9
2019-06-07T19:19:19.956Z,26.9
2019-06-07T19:29:19.184Z,26.9
2019-06-07T19:39:18.406Z,26.9
2019-06-07T19:49:17.642Z,26.9
2019-06-07T19:59:16.865Z,26.9
2019-06-07T20:09:16.093Z,27
2019-06-07T20:19:15.322Z,26.9
2019-06-07T20:29:25.703Z,27
2019-06-07T20:39:13.793Z,27
2019-06-07T20:49:13.016Z,27
2019-06-07T20:59:12.246Z,27
2019-06-07T21:11:01.612Z,27.1
2019-06-07T21:21:00.664Z,27
2019-06-07T21:30:59.897Z,27.1
2019-06-07T21:40:59.116Z,27.1
2019-06-07T21:50:58.344Z,27.1
2019-06-07T22:00:57.584Z,27
2019-06-07T22:10:56.832Z,27
2019-06-07T22:20:56.149Z,27.1
2019-06-07T22:30:55.447Z,27.1
2019-06-07T22:40:54.753Z,27.1
2019-06-07T22:50:54.051Z,27.1
2019-06-07T23:00:53.362Z,27
2019-06-07T23:10:52.599Z,27
2019-06-07T23:20:51.877Z,27
2019-06-07T23:30:51.069Z,27
2019-06-07T23:40:50.274Z,27
2019-06-07T23:50:49.510Z,26.9
